David Evans — WDC6547 — position and weather

sailwx.info

Track history (hours):
 
Tides and Currents Weather Stations Pressure Air Temp Water Temp Dewpoint Dewpoint Depression Visibility Wind Speed Wind Dir Waves Ship Positions

David Evans

Owner: American Commercial Lines LLC, Jeffersonville, IN. More information available from US FCC via Universal Licensing System and Coast Guard Vessel Documentation Center.

Last reported at 2017-Nov-18 18:45 UTC. Time now 2017-Nov-21 15:51 UTC.
Position N 32°40' W 091°08'.

Length 55 m; draft 2.7 m.

Type: Towing. MMSI: 367057750.

Date/timePositionNaut miles runAvg speedWind from/ knotsBaromVisibWave heightAir tempDewpointWater temp
2017-Nov-18 18:45N 32°40' W 091°08'2 5.0
2017-Nov-18 18:22N 32°38' W 091°09'2 5.0
2017-Nov-18 18:00N 32°37' W 091°09'2 4.0
2017-Nov-18 17:30N 32°35' W 091°07'2 3.9
2017-Nov-18 17:00N 32°33' W 091°06'2 3.7
2017-Nov-18 16:29N 32°32' W 091°06'3 5.3
2017-Nov-18 16:00N 32°29' W 091°07'2 3.8
2017-Nov-18 15:30N 32°28' W 091°06'2 4.1
2017-Nov-18 15:00N 32°26' W 091°04'2 4.2
2017-Nov-18 14:30N 32°26' W 091°01'2 4.8
2017-Nov-18 14:00N 32°24' W 090°59'2 3.9
2017-Nov-18 13:30N 32°22' W 091°00'0 0.6
2017-Nov-18 13:00N 32°22' W 091°00'1 2.9
2017-Nov-18 12:30N 32°21' W 090°59'2 4.8
2017-Nov-18 12:00N 32°21' W 090°56'2 4.0
2017-Nov-18 11:30N 32°20' W 090°54'2 3.7
2017-Nov-18 11:00N 32°18' W 090°55'2 4.5
2017-Nov-18 10:30N 32°17' W 090°57'2 4.1
2017-Nov-18 10:00N 32°15' W 090°59'2 3.7
2017-Nov-18 09:30N 32°13' W 090°59'2 4.1
2017-Nov-18 09:00N 32°11' W 090°60'2 3.9
2017-Nov-18 08:30N 32°09' W 091°00'2 4.1
2017-Nov-18 08:00N 32°07' W 091°01'4 4.4
2017-Nov-18 07:08N 32°08' W 091°06'1 4.5
2017-Nov-18 06:59N 32°08' W 091°06'2 3.5
2017-Nov-18 06:30N 32°06' W 091°06'2 0.8
2017-Nov-18 04:11N 32°05' W 091°04'1 4.7
2017-Nov-18 03:59N 32°04' W 091°04'2 4.4
2017-Nov-18 03:30N 32°02' W 091°04'  
2017-Nov-12 22:12N 31°58' W 091°11'2 7.2
2017-Nov-12 21:54N 31°59' W 091°09'3 7.9
2017-Nov-12 21:30N 31°60' W 091°05'5 7.7
2017-Nov-12 20:49N 32°05' W 091°04'3 8.7
2017-Nov-12 20:30N 32°07' W 091°06'3 6.0
2017-Nov-12 20:00N 32°07' W 091°03'3 6.9
2017-Nov-12 19:30N 32°10' W 091°00'4 8.4
2017-Nov-12 19:00N 32°14' W 090°59'4 8.1
2017-Nov-12 18:30N 32°17' W 090°56'4 7.3
2017-Nov-12 18:00N 32°20' W 090°54'3 6.3
2017-Nov-12 17:30N 32°21' W 090°58'3 5.3
2017-Nov-12 17:00N 32°23' W 090°60'3 6.5
2017-Nov-12 16:30N 32°26' W 091°02'4 7.8
2017-Nov-12 16:00N 32°28' W 091°06'5 7.4
2017-Nov-12 15:18N 32°33' W 091°06'2 7.7
2017-Nov-12 15:00N 32°35' W 091°07'5 7.2
2017-Nov-12 14:17N 32°40' W 091°08'  
Track history (hours):
 
Tides and Currents Weather Stations Pressure Air Temp Water Temp Dewpoint Dewpoint Depression Visibility Wind Speed Wind Dir Waves Ship Positions

David Evans

Owner: American Commercial Lines LLC, Jeffersonville, IN. More information available from US FCC via Universal Licensing System and Coast Guard Vessel Documentation Center.

Last reported at 2017-Nov-18 18:45 UTC. Time now 2017-Nov-21 15:51 UTC.
Position N 32°40' W 091°08'.

Length 55 m; draft 2.7 m.

Type: Towing. MMSI: 367057750.

Date/timePositionNaut miles runAvg speedWind from/ knotsBaromVisibWave heightAir tempDewpointWater temp
2017-Nov-18 18:45N 32°40' W 091°08'2 5.0
2017-Nov-18 18:22N 32°38' W 091°09'2 5.0
2017-Nov-18 18:00N 32°37' W 091°09'2 4.0
2017-Nov-18 17:30N 32°35' W 091°07'2 3.9
2017-Nov-18 17:00N 32°33' W 091°06'2 3.7
2017-Nov-18 16:29N 32°32' W 091°06'3 5.3
2017-Nov-18 16:00N 32°29' W 091°07'2 3.8
2017-Nov-18 15:30N 32°28' W 091°06'2 4.1
2017-Nov-18 15:00N 32°26' W 091°04'2 4.2
2017-Nov-18 14:30N 32°26' W 091°01'2 4.8
2017-Nov-18 14:00N 32°24' W 090°59'2 3.9
2017-Nov-18 13:30N 32°22' W 091°00'0 0.6
2017-Nov-18 13:00N 32°22' W 091°00'1 2.9
2017-Nov-18 12:30N 32°21' W 090°59'2 4.8
2017-Nov-18 12:00N 32°21' W 090°56'2 4.0
2017-Nov-18 11:30N 32°20' W 090°54'2 3.7
2017-Nov-18 11:00N 32°18' W 090°55'2 4.5
2017-Nov-18 10:30N 32°17' W 090°57'2 4.1
2017-Nov-18 10:00N 32°15' W 090°59'2 3.7
2017-Nov-18 09:30N 32°13' W 090°59'2 4.1
2017-Nov-18 09:00N 32°11' W 090°60'2 3.9
2017-Nov-18 08:30N 32°09' W 091°00'2 4.1
2017-Nov-18 08:00N 32°07' W 091°01'4 4.4
2017-Nov-18 07:08N 32°08' W 091°06'1 4.5
2017-Nov-18 06:59N 32°08' W 091°06'2 3.5
2017-Nov-18 06:30N 32°06' W 091°06'2 0.8
2017-Nov-18 04:11N 32°05' W 091°04'1 4.7
2017-Nov-18 03:59N 32°04' W 091°04'2 4.4
2017-Nov-18 03:30N 32°02' W 091°04'  
2017-Nov-12 22:12N 31°58' W 091°11'2 7.2
2017-Nov-12 21:54N 31°59' W 091°09'3 7.9
2017-Nov-12 21:30N 31°60' W 091°05'5 7.7
2017-Nov-12 20:49N 32°05' W 091°04'3 8.7
2017-Nov-12 20:30N 32°07' W 091°06'3 6.0
2017-Nov-12 20:00N 32°07' W 091°03'3 6.9
2017-Nov-12 19:30N 32°10' W 091°00'4 8.4
2017-Nov-12 19:00N 32°14' W 090°59'4 8.1
2017-Nov-12 18:30N 32°17' W 090°56'4 7.3
2017-Nov-12 18:00N 32°20' W 090°54'3 6.3
2017-Nov-12 17:30N 32°21' W 090°58'3 5.3
2017-Nov-12 17:00N 32°23' W 090°60'3 6.5
2017-Nov-12 16:30N 32°26' W 091°02'4 7.8
2017-Nov-12 16:00N 32°28' W 091°06'5 7.4
2017-Nov-12 15:18N 32°33' W 091°06'2 7.7
2017-Nov-12 15:00N 32°35' W 091°07'5 7.2
2017-Nov-12 14:17N 32°40' W 091°08'  

Dump ship's entire track history